Time;durP1;ratioP1;P1;durP2;ratioP2;P2;SDS_P1;SDS_P2;PMS_P1;PMS_P2;Temp;Humidity;BMP_temperature;BMP_pressure;BME280_temperature;BME280_humidity;BME280_pressure;Samples;Min_cycle;Max_cycle;Signal;HPM_P1;HPM_P2
2020/01/08 00:01:51;;;;;;;8.4;5.9;;;;;;;0.36;88.75586;949.8204;;;;
2020/01/08 00:04:16;;;;;;;8.8;5.8;;;;;;;0.44;87.95898;949.8959;;;;
2020/01/08 00:06:41;;;;;;;8.1;5.7;;;;;;;0.35;87.95117;949.8677;;;;
2020/01/08 00:09:06;;;;;;;13.6;8.1;;;;;;;0.32;88.25781;949.83;;;;
2020/01/08 00:11:31;;;;;;;11.8;7.6;;;;;;;0.26;88.65723;949.8287;;;;
2020/01/08 00:13:56;;;;;;;11.5;7.7;;;;;;;0.33;88.1377;949.8021;;;;
2020/01/08 00:16:22;;;;;;;12.2;8.1;;;;;;;0.27;88.10352;949.8433;;;;
2020/01/08 00:18:47;;;;;;;11.3;7.7;;;;;;;0.23;88.03711;949.7249;;;;
2020/01/08 00:21:12;;;;;;;11.1;7.1;;;;;;;0.19;88.15332;949.6956;;;;
2020/01/08 00:23:37;;;;;;;8.8;6.1;;;;;;;0.07;88.57324;949.7292;;;;
2020/01/08 00:26:02;;;;;;;7.5;5.6;;;;;;;0.15;88.1123;949.7086;;;;
2020/01/08 00:28:27;;;;;;;7.7;5.6;;;;;;;0.12;88.10352;949.6649;;;;
2020/01/08 00:30:52;;;;;;;7.8;5.4;;;;;;;0.05;88.22363;949.6417;;;;
2020/01/08 00:33:17;;;;;;;7.9;5.6;;;;;;;0.04;88.35547;949.6702;;;;
2020/01/08 00:35:42;;;;;;;8.9;5.8;;;;;;;0.02;88.43848;949.7019;;;;
2020/01/08 00:38:07;;;;;;;8.2;5.8;;;;;;;-0.09;88.65234;949.6609;;;;
2020/01/08 00:40:33;;;;;;;9.2;6;;;;;;;-0.1;88.49219;949.6641;;;;
2020/01/08 00:42:58;;;;;;;8;5.3;;;;;;;-0.19;88.84277;949.6231;;;;
2020/01/08 00:45:23;;;;;;;7.7;4.7;;;;;;;-0.2;88.81641;949.6443;;;;
2020/01/08 00:47:48;;;;;;;7.6;4.8;;;;;;;-0.28;89.11133;949.6805;;;;
2020/01/08 00:50:13;;;;;;;8.9;5.1;;;;;;;-0.2;88.95215;949.7045;;;;
2020/01/08 00:52:38;;;;;;;7.4;5;;;;;;;-0.09;88.47363;949.7744;;;;
2020/01/08 00:55:03;;;;;;;7.3;5.3;;;;;;;-0.11;88.15625;949.6919;;;;
2020/01/08 00:57:28;;;;;;;6.8;5;;;;;;;-0.12;87.98926;949.7773;;;;
2020/01/08 00:59:53;;;;;;;8;5.3;;;;;;;-0.15;87.83691;949.7795;;;;
2020/01/08 01:02:19;;;;;;;6.8;4.8;;;;;;;-0.26;88.37988;949.7811;;;;
2020/01/08 01:07:09;;;;;;;6.6;4.9;;;;;;;-0.24;88.73145;949.6713;;;;
2020/01/08 01:12:01;;;;;;;6.5;4.3;;;;;;;-0.21;87.99121;949.6342;;;;
2020/01/08 01:14:44;;;;;;;5.7;4.1;;;;;;;-0.31;87.89258;949.6584;;;;
2020/01/08 01:16:49;;;;;;;6;4;;;;;;;-0.44;88.07715;949.6548;;;;
2020/01/08 01:19:14;;;;;;;5.7;3.7;;;;;;;-0.41;88.4834;949.7128;;;;
2020/01/08 01:21:39;;;;;;;6.7;4.5;;;;;;;-0.41;88.53711;949.5804;;;;
2020/01/08 01:24:04;;;;;;;7.7;4.5;;;;;;;-0.4;88.4541;949.5959;;;;
2020/01/08 01:26:29;;;;;;;6.2;4;;;;;;;-0.46;88.44043;949.573;;;;
2020/01/08 01:28:54;;;;;;;7.4;4.3;;;;;;;-0.49;88.32324;949.5223;;;;
2020/01/08 01:31:20;;;;;;;5.4;4;;;;;;;-0.52;88.32715;949.4639;;;;
2020/01/08 01:33:45;;;;;;;5.4;4.3;;;;;;;-0.44;87.95313;949.5339;;;;
2020/01/08 01:36:10;;;;;;;5.2;3.7;;;;;;;-0.49;87.74512;949.5959;;;;
2020/01/08 01:38:35;;;;;;;4.7;3.7;;;;;;;-0.5;87.76367;949.6314;;;;
2020/01/08 01:41:00;;;;;;;5.3;3.8;;;;;;;-0.52;87.57031;949.6696;;;;
2020/01/08 01:43:25;;;;;;;5;3.6;;;;;;;-0.52;87.4707;949.7004;;;;
2020/01/08 01:45:51;;;;;;;5.3;3.3;;;;;;;-0.54;87.36523;949.6755;;;;
2020/01/08 01:48:16;;;;;;;4;2.9;;;;;;;-0.57;87.53711;949.6641;;;;
2020/01/08 01:50:41;;;;;;;4.2;3.1;;;;;;;-0.52;87.20313;949.7017;;;;
2020/01/08 01:53:07;;;;;;;5.7;3.5;;;;;;;-0.45;86.68457;949.7538;;;;
2020/01/08 01:55:32;;;;;;;5.7;4;;;;;;;-0.43;86.27441;949.6761;;;;
2020/01/08 01:57:57;;;;;;;5.2;3.8;;;;;;;-0.48;86.47656;949.733;;;;
2020/01/08 02:00:22;;;;;;;6.1;3.7;;;;;;;-0.5;86.61719;949.7513;;;;
2020/01/08 02:02:47;;;;;;;5;3.6;;;;;;;-0.51;86.5957;949.7009;;;;
2020/01/08 02:05:13;;;;;;;5.4;3.6;;;;;;;-0.5;86.48438;949.8239;;;;
2020/01/08 02:07:38;;;;;;;5.4;3.5;;;;;;;-0.44;86.31934;949.8394;;;;
2020/01/08 02:10:03;;;;;;;5.8;3.8;;;;;;;-0.26;85.55273;949.8947;;;;
2020/01/08 02:12:29;;;;;;;6.1;3.7;;;;;;;-0.12;84.31445;949.8681;;;;
2020/01/08 02:14:54;;;;;;;5.7;3.7;;;;;;;-0.07;83.88867;949.9306;;;;
2020/01/08 02:17:19;;;;;;;6.2;3.8;;;;;;;;;;;;;
2020/01/08 02:19:44;;;;;;;6;4;;;;;;;;;;;;;
2020/01/08 02:22:10;;;;;;;7;4.4;;;;;;;;;;;;;
2020/01/08 02:24:35;;;;;;;7;4.4;;;;;;;;;;;;;
2020/01/08 02:27:00;;;;;;;5.8;4;;;;;;;;;;;;;
2020/01/08 02:29:25;;;;;;;3.8;2.9;;;;;;;;;;;;;
2020/01/08 02:31:51;;;;;;;4.9;3.4;;;;;;;;;;;;;
2020/01/08 02:34:16;;;;;;;5;3.2;;;;;;;;;;;;;
2020/01/08 02:36:41;;;;;;;4.3;3.3;;;;;;;;;;;;;
2020/01/08 02:39:06;;;;;;;4.8;3.2;;;;;;;;;;;;;
2020/01/08 02:41:33;;;;;;;4.6;3.5;;;;;;;;;;;;;
2020/01/08 02:43:56;;;;;;;4.2;3.2;;;;;;;;;;;;;
2020/01/08 02:48:46;;;;;;;4.4;3.1;;;;;;;;;;;;;
2020/01/08 02:51:12;;;;;;;4.1;2.8;;;;;;;;;;;;;
2020/01/08 02:53:37;;;;;;;3.5;2.7;;;;;;;;;;;;;
2020/01/08 02:56:34;;;;;;;4.2;2.5;;;;;;;;;;;;;
2020/01/08 02:58:27;;;;;;;6.8;2.9;;;;;;;;;;;;;
2020/01/08 03:01:10;;;;;;;8.7;4.3;;;;;;;;;;;;;
2020/01/08 03:03:17;;;;;;;10.8;5.2;;;;;;;;;;;;;
2020/01/08 03:05:42;;;;;;;9.3;5.2;;;;;;;;;;;;;
2020/01/08 03:08:24;;;;;;;7.1;3.9;;;;;;;;;;;;;
2020/01/08 03:12:59;;;;;;;10.3;5.3;;;;;;;;;;;;;
2020/01/08 03:15:23;;;;;;;10.2;4.9;;;;;;;;;;;;;
2020/01/08 03:17:48;;;;;;;11.2;4.1;;;;;;;;;;;;;
2020/01/08 03:20:13;;;;;;;4.1;2.6;;;;;;;;;;;;;
2020/01/08 03:22:38;;;;;;;2.9;2;;;;;;;;;;;;;
2020/01/08 03:25:03;;;;;;;5;2.3;;;;;;;;;;;;;
2020/01/08 03:27:28;;;;;;;3.7;2.3;;;;;;;;;;;;;
2020/01/08 03:29:54;;;;;;;4.4;2.5;;;;;;;;;;;;;
2020/01/08 03:32:19;;;;;;;4;2.7;;;;;;;;;;;;;
2020/01/08 03:34:44;;;;;;;6.1;2.9;;;;;;;;;;;;;
2020/01/08 03:37:09;;;;;;;3.5;2.1;;;;;;;;;;;;;
2020/01/08 03:39:34;;;;;;;3.9;2.2;;;;;;;;;;;;;
2020/01/08 03:41:59;;;;;;;3.5;2.2;;;;;;;;;;;;;
2020/01/08 03:44:24;;;;;;;3;2;;;;;;;;;;;;;
2020/01/08 03:46:49;;;;;;;4.1;2.7;;;;;;;;;;;;;
2020/01/08 03:49:14;;;;;;;4.6;3.1;;;;;;;;;;;;;
2020/01/08 03:51:39;;;;;;;3.9;2.3;;;;;;;;;;;;;
2020/01/08 03:54:04;;;;;;;3.3;2.4;;;;;;;;;;;;;
2020/01/08 03:56:29;;;;;;;5.9;3.4;;;;;;;;;;;;;
2020/01/08 03:58:55;;;;;;;5.4;3.8;;;;;;;;;;;;;
2020/01/08 04:02:30;;;;;;;20.6;11.1;;;;;;;-1.17;82.43652;949.3549;;;;
2020/01/08 04:04:55;;;;;;;5.6;3.2;;;;;;;-1.1;81.95996;949.3605;;;;
2020/01/08 04:07:20;;;;;;;4.5;3.1;;;;;;;-1.04;81.2627;949.3667;;;;
2020/01/08 04:09:45;;;;;;;4;2.6;;;;;;;-1.05;80.9043;949.3987;;;;
2020/01/08 04:12:10;;;;;;;4.2;2.8;;;;;;;-1.13;81.27734;949.488;;;;
2020/01/08 04:14:35;;;;;;;3.5;2.4;;;;;;;-1.19;81.52051;949.4338;;;;
2020/01/08 04:17:00;;;;;;;3.9;2.6;;;;;;;-1.24;81.53613;949.4711;;;;
2020/01/08 04:19:25;;;;;;;5;3;;;;;;;-1.3;81.65723;949.469;;;;
2020/01/08 04:21:50;;;;;;;4.5;2.9;;;;;;;-1.26;81.31934;949.5053;;;;
2020/01/08 04:24:16;;;;;;;6.9;4.5;;;;;;;-1.25;80.94531;949.5517;;;;
2020/01/08 04:26:41;;;;;;;10.8;8.7;;;;;;;-1.15;80.42773;949.5991;;;;
2020/01/08 04:29:06;;;;;;;6.9;5.3;;;;;;;-1.15;79.30566;949.535;;;;
2020/01/08 04:31:31;;;;;;;8.2;6.2;;;;;;;-1.12;79.74805;949.5048;;;;
2020/01/08 04:33:56;;;;;;;8.4;5.7;;;;;;;-1.08;79.4541;949.5698;;;;
2020/01/08 04:36:21;;;;;;;7;5.1;;;;;;;-1.07;78.93555;949.5609;;;;
2020/01/08 04:38:46;;;;;;;3.3;2.2;;;;;;;-1.05;76.51367;949.5991;;;;
2020/01/08 04:41:11;;;;;;;3.8;2.8;;;;;;;-0.89;76.40039;949.6144;;;;
2020/01/08 04:43:36;;;;;;;4.7;2.8;;;;;;;-0.87;76.60352;949.5742;;;;
2020/01/08 04:46:02;;;;;;;5.2;3;;;;;;;-0.78;76.85352;949.5226;;;;
2020/01/08 04:48:27;;;;;;;3.5;2.5;;;;;;;-0.71;76.62207;949.5042;;;;
2020/01/08 04:50:52;;;;;;;4.2;2.3;;;;;;;-0.72;76.45313;949.51;;;;
2020/01/08 04:53:17;;;;;;;5.2;2.8;;;;;;;-0.97;77.38574;949.4936;;;;
2020/01/08 04:55:42;;;;;;;5.5;4.1;;;;;;;-1.04;78.08496;949.4808;;;;
2020/01/08 04:58:07;;;;;;;8.4;5.5;;;;;;;-1.14;78.75391;949.4827;;;;
2020/01/08 05:00:32;;;;;;;9.6;5.1;;;;;;;-1.16;78.5166;949.4903;;;;
2020/01/08 05:02:58;;;;;;;10.3;7.8;;;;;;;-1.15;78.70801;949.5386;;;;
2020/01/08 05:05:23;;;;;;;7.7;5.4;;;;;;;-1.1;77.44043;949.4446;;;;
2020/01/08 05:07:48;;;;;;;8.9;5.6;;;;;;;-1.04;77.5957;949.4814;;;;
2020/01/08 05:10:13;;;;;;;7.4;5;;;;;;;-1.05;76.71484;949.4478;;;;
2020/01/08 05:12:38;;;;;;;4.5;3.2;;;;;;;-0.96;74.08594;949.5115;;;;
2020/01/08 05:15:05;;;;;;;8;5.1;;;;;;;-0.8;74.30371;949.5075;;;;
2020/01/08 05:17:40;;;;;;;3.8;2.6;;;;;;;-0.74;73.26855;949.5151;;;;
2020/01/08 05:19:56;;;;;;;5;3.5;;;;;;;-0.69;70.94336;949.5309;;;;
2020/01/08 05:22:19;;;;;;;6.7;4;;;;;;;-0.51;70.62891;949.4803;;;;
2020/01/08 05:24:44;;;;;;;7.1;4.3;;;;;;;-0.67;73.75879;949.3771;;;;
2020/01/08 05:27:09;;;;;;;7.2;4.9;;;;;;;-1.05;76.01465;949.3837;;;;
2020/01/08 05:29:34;;;;;;;16;8.4;;;;;;;-1.32;77.78906;949.3059;;;;
2020/01/08 05:31:59;;;;;;;24.2;14.1;;;;;;;-1.27;78.08594;949.368;;;;
2020/01/08 05:34:24;;;;;;;20.8;13.1;;;;;;;-1.3;77.46875;949.3436;;;;
2020/01/08 05:36:50;;;;;;;15.2;9.1;;;;;;;-1.32;77.47656;949.3688;;;;
2020/01/08 05:39:15;;;;;;;8.7;6.2;;;;;;;-1.32;76.42285;949.3128;;;;
2020/01/08 05:41:40;;;;;;;3.4;2.3;;;;;;;-1.15;71.48633;949.3312;;;;
2020/01/08 05:44:05;;;;;;;6.6;4.1;;;;;;;-0.88;72.7334;949.2989;;;;
2020/01/08 05:46:30;;;;;;;8;2.8;;;;;;;-0.81;71.94336;949.3059;;;;
2020/01/08 05:49:05;;;;;;;5.1;3.9;;;;;;;-0.76;73.52246;949.3774;;;;
2020/01/08 05:51:20;;;;;;;3.7;2.6;;;;;;;-0.82;73.19824;949.4523;;;;
2020/01/08 05:53:46;;;;;;;3.9;2.5;;;;;;;-0.89;73.35254;949.5286;;;;
2020/01/08 05:56:11;;;;;;;3.1;2.3;;;;;;;-0.83;72.48535;949.5329;;;;
2020/01/08 05:58:36;;;;;;;3.8;2;;;;;;;-0.86;71.99121;949.5527;;;;
2020/01/08 06:01:01;;;;;;;3.7;2;;;;;;;-0.86;72.49316;949.6296;;;;
2020/01/08 06:03:26;;;;;;;3.1;2;;;;;;;-0.98;72.16016;949.6917;;;;
2020/01/08 06:05:51;;;;;;;3.2;1.9;;;;;;;-1;72.82422;949.7419;;;;
2020/01/08 06:08:16;;;;;;;221.9;120.8;;;;;;;-0.99;71.58203;949.6644;;;;
2020/01/08 06:10:41;;;;;;;6.5;3.6;;;;;;;-0.84;72.19434;949.8339;;;;
2020/01/08 06:13:06;;;;;;;9.5;7.6;;;;;;;-0.83;71.39746;949.9094;;;;
2020/01/08 06:15:31;;;;;;;8.2;5.7;;;;;;;-0.75;72.25488;949.948;;;;
2020/01/08 06:17:57;;;;;;;15.6;8.2;;;;;;;-0.75;73.91113;949.9992;;;;
2020/01/08 06:20:22;;;;;;;8.9;5;;;;;;;-0.76;74.08984;950.1803;;;;
2020/01/08 06:22:47;;;;;;;9.7;6.6;;;;;;;-0.81;73.94531;950.2583;;;;
2020/01/08 06:25:12;;;;;;;9.9;6.1;;;;;;;-0.86;74.30566;950.3311;;;;
2020/01/08 06:27:37;;;;;;;15.1;8.3;;;;;;;-0.91;74.38477;950.3516;;;;
2020/01/08 06:30:02;;;;;;;15.6;9;;;;;;;-0.99;75.19238;950.3858;;;;
2020/01/08 06:32:27;;;;;;;16.8;7.9;;;;;;;-0.97;75.50684;950.3856;;;;
2020/01/08 06:34:52;;;;;;;9;5.8;;;;;;;-1.03;75.17383;950.4019;;;;
2020/01/08 06:37:17;;;;;;;8.4;5.7;;;;;;;-1.1;75.50488;950.3493;;;;
2020/01/08 06:39:43;;;;;;;12.2;6.8;;;;;;;-1.12;75.58008;950.2447;;;;
2020/01/08 06:42:08;;;;;;;9.4;6.5;;;;;;;-1.07;75.62305;950.1577;;;;
2020/01/08 06:44:34;;;;;;;11.5;7.5;;;;;;;-1.05;76.41309;950.0666;;;;
2020/01/08 06:46:59;;;;;;;7.1;4.4;;;;;;;-1.1;77.68262;950.093;;;;
2020/01/08 06:49:24;;;;;;;6.6;4.5;;;;;;;-0.91;77.1084;950.0184;;;;
2020/01/08 06:51:49;;;;;;;4.2;2.8;;;;;;;-0.75;73;949.9111;;;;
2020/01/08 06:54:14;;;;;;;5;3.2;;;;;;;-0.63;70.05176;949.7794;;;;
2020/01/08 06:56:39;;;;;;;5.5;3.3;;;;;;;-0.5;70.26172;949.7595;;;;
2020/01/08 06:59:05;;;;;;;7.2;3.6;;;;;;;-0.49;70.50781;949.6903;;;;
2020/01/08 07:01:30;;;;;;;9.1;4.3;;;;;;;-0.29;70.11816;949.8353;;;;
2020/01/08 07:03:55;;;;;;;6.5;4.5;;;;;;;-0.26;69.37891;949.8669;;;;
2020/01/08 07:06:20;;;;;;;7.7;4.5;;;;;;;-0.24;70.4502;949.8554;;;;
2020/01/08 07:08:45;;;;;;;6.8;4.1;;;;;;;-0.13;68.74121;949.8176;;;;
2020/01/08 07:11:10;;;;;;;3;2.2;;;;;;;0.06;64.80859;949.8052;;;;
2020/01/08 07:13:35;;;;;;;3.7;1.4;;;;;;;0.43;61.53027;949.7841;;;;
2020/01/08 07:16:00;;;;;;;5.1;2.9;;;;;;;0.7;62.04883;949.8044;;;;
2020/01/08 07:18:25;;;;;;;8.5;5.2;;;;;;;0.83;64.84668;949.7894;;;;
2020/01/08 07:20:51;;;;;;;9;6.1;;;;;;;0.57;67.69727;949.8147;;;;
2020/01/08 07:23:16;;;;;;;11.1;5.8;;;;;;;0.44;68.26758;949.7841;;;;
2020/01/08 07:25:42;;;;;;;7.5;4.6;;;;;;;0.41;68.14063;949.6796;;;;
2020/01/08 07:28:07;;;;;;;8.2;4.8;;;;;;;0.4;69.10645;949.7128;;;;
2020/01/08 07:30:32;;;;;;;7.6;4.3;;;;;;;0.47;67.36914;949.8148;;;;
2020/01/08 07:32:57;;;;;;;7;4.1;;;;;;;0.56;66.74707;949.9039;;;;
2020/01/08 07:35:24;;;;;;;8.4;5.6;;;;;;;0.65;66.53711;949.8095;;;;
2020/01/08 07:37:49;;;;;;;7.5;5;;;;;;;0.7;66.32227;949.7197;;;;
2020/01/08 07:40:21;;;;;;;9.8;6.5;;;;;;;0.71;67.25;949.7188;;;;
2020/01/08 07:45:04;;;;;;;9;5.9;;;;;;;0.45;67.58887;949.8279;;;;
2020/01/08 07:47:29;;;;;;;11.8;5.3;;;;;;;0.43;67.65137;949.8661;;;;
2020/01/08 07:49:54;;;;;;;9.6;5.4;;;;;;;0.68;67.9248;949.8122;;;;
2020/01/08 07:52:19;;;;;;;17.1;5.5;;;;;;;0.72;66.59277;949.8304;;;;
2020/01/08 07:54:44;;;;;;;9.2;5.1;;;;;;;0.72;66.87207;949.6736;;;;
2020/01/08 07:57:10;;;;;;;15.7;6.8;;;;;;;0.74;66.50684;949.6766;;;;
2020/01/08 07:59:35;;;;;;;17.4;7;;;;;;;0.9;64.99316;949.7902;;;;
2020/01/08 08:02:00;;;;;;;17.1;9.4;;;;;;;0.96;65.01172;949.8774;;;;
2020/01/08 08:04:26;;;;;;;24.4;11.3;;;;;;;0.88;66.06055;949.8951;;;;
2020/01/08 08:06:51;;;;;;;22;10;;;;;;;0.89;66.04102;949.7888;;;;
2020/01/08 08:09:16;;;;;;;23.5;10.3;;;;;;;0.97;66.86621;949.8781;;;;
2020/01/08 08:11:41;;;;;;;23.3;10;;;;;;;1.05;67.01465;949.8208;;;;
2020/01/08 08:14:06;;;;;;;27.1;11.5;;;;;;;1.05;68.39941;949.8258;;;;
2020/01/08 08:16:31;;;;;;;26;9.9;;;;;;;1.27;67.33887;949.8484;;;;
2020/01/08 08:18:56;;;;;;;28.2;11.9;;;;;;;1.39;67.01172;949.8691;;;;
2020/01/08 08:21:22;;;;;;;26;11.4;;;;;;;1.56;66.87109;949.9316;;;;
2020/01/08 08:23:47;;;;;;;25.1;10.7;;;;;;;1.57;64.22266;949.9442;;;;
2020/01/08 08:26:12;;;;;;;19.4;8.1;;;;;;;1.52;59.49805;949.9335;;;;
2020/01/08 08:28:38;;;;;;;19.1;10;;;;;;;1.75;61.21875;949.9272;;;;
2020/01/08 08:31:03;;;;;;;17.7;9.7;;;;;;;1.92;63.14551;950.1161;;;;
2020/01/08 08:33:28;;;;;;;22;12.5;;;;;;;1.88;64.98535;950.0831;;;;
2020/01/08 08:36:08;;;;;;;18.8;11.6;;;;;;;1.93;62.91113;950.0852;;;;
2020/01/08 08:38:18;;;;;;;15.1;6.8;;;;;;;1.97;60.1543;950.0089;;;;
2020/01/08 08:40:53;;;;;;;8.2;3.3;;;;;;;2.09;56.35449;949.8898;;;;
2020/01/08 08:43:12;;;;;;;8.4;3.2;;;;;;;2.33;54.01172;949.9275;;;;
2020/01/08 08:45:41;;;;;;;10.1;5;;;;;;;2.54;57.09766;950.0173;;;;
2020/01/08 08:47:59;;;;;;;15.1;5.2;;;;;;;2.66;57.66211;949.8722;;;;
2020/01/08 08:50:24;;;;;;;11.5;5.7;;;;;;;2.68;57.31836;949.9016;;;;
2020/01/08 08:52:49;;;;;;;13.7;5.4;;;;;;;2.81;56.38086;949.8744;;;;
2020/01/08 08:55:15;;;;;;;14.4;4.7;;;;;;;2.93;54.58008;949.9228;;;;
2020/01/08 08:57:39;;;;;;;7.1;3.6;;;;;;;3.04;52.74316;949.9877;;;;
2020/01/08 09:00:05;;;;;;;24;4.8;;;;;;;3.28;54.7373;950.0809;;;;
2020/01/08 09:02:30;;;;;;;25.4;7.2;;;;;;;3.47;56.06641;950.181;;;;
2020/01/08 09:04:55;;;;;;;24.4;10.8;;;;;;;3.48;58.41406;950.1705;;;;
2020/01/08 09:07:24;;;;;;;28.4;9.6;;;;;;;3.62;58.45605;950.2628;;;;
2020/01/08 09:09:52;;;;;;;34.9;6.8;;;;;;;3.68;53.86816;950.2966;;;;
2020/01/08 09:12:11;;;;;;;32.4;11.8;;;;;;;3.82;60.49414;950.3318;;;;
2020/01/08 09:14:36;;;;;;;44.4;18.1;;;;;;;3.74;60.76563;950.3236;;;;
2020/01/08 09:17:01;;;;;;;26.2;12;;;;;;;3.7;57.78125;950.3942;;;;
2020/01/08 09:19:26;;;;;;;35.1;13.9;;;;;;;3.65;59.39258;950.4113;;;;
2020/01/08 09:21:51;;;;;;;36;9.1;;;;;;;3.74;54.86426;950.4997;;;;
2020/01/08 09:24:17;;;;;;;25.6;7.9;;;;;;;3.77;55.31836;950.3959;;;;
2020/01/08 09:26:42;;;;;;;35.4;10.3;;;;;;;3.8;57.94043;950.395;;;;
2020/01/08 09:29:07;;;;;;;32.5;7;;;;;;;3.7;54.17383;950.3574;;;;
2020/01/08 09:31:33;;;;;;;58;8.6;;;;;;;3.83;53.75293;950.4729;;;;
2020/01/08 09:33:58;;;;;;;64.3;9.4;;;;;;;4;53.88672;950.4536;;;;
2020/01/08 09:36:39;;;;;;;16.8;2.9;;;;;;;4.05;47.17871;950.3926;;;;
2020/01/08 09:38:48;;;;;;;35.3;5.8;;;;;;;4.33;51.8125;950.4127;;;;
2020/01/08 09:41:13;;;;;;;24;5.7;;;;;;;4.58;52.6875;950.4283;;;;
2020/01/08 09:43:38;;;;;;;29.4;6.7;;;;;;;4.59;52.87988;950.3484;;;;
2020/01/08 09:46:03;;;;;;;25.9;10.1;;;;;;;4.5;53.89258;950.2936;;;;
2020/01/08 09:48:29;;;;;;;17.4;8;;;;;;;4.3;54.12598;950.3161;;;;
2020/01/08 09:50:54;;;;;;;36.7;12.1;;;;;;;4.21;55.81445;950.4116;;;;
2020/01/08 09:53:19;;;;;;;29.9;10.2;;;;;;;4.21;56.16211;950.4422;;;;
2020/01/08 09:55:44;;;;;;;74.9;11.1;;;;;;;4.27;55.98047;950.5066;;;;
2020/01/08 09:58:09;;;;;;;47.3;8.8;;;;;;;4.49;56.83008;950.4842;;;;
2020/01/08 10:00:35;;;;;;;26.8;7.1;;;;;;;4.7;56.04688;950.4598;;;;
2020/01/08 10:03:00;;;;;;;17.1;8.8;;;;;;;4.88;57.09668;950.4619;;;;
2020/01/08 10:05:25;;;;;;;66.9;13.7;;;;;;;4.95;57.18457;950.4853;;;;
2020/01/08 10:07:50;;;;;;;39.8;10;;;;;;;5.02;56.08984;950.5144;;;;
2020/01/08 10:10:16;;;;;;;56.8;11.9;;;;;;;5.14;56.66797;950.4649;;;;
2020/01/08 10:12:41;;;;;;;42.4;13.1;;;;;;;5.33;55.26172;950.5103;;;;
2020/01/08 10:15:06;;;;;;;24.7;9.3;;;;;;;5.57;55.30371;950.5614;;;;
2020/01/08 10:17:31;;;;;;;25.2;10;;;;;;;5.83;54.11719;950.53;;;;
2020/01/08 10:19:56;;;;;;;39.9;10.8;;;;;;;6.08;48.38672;950.4918;;;;
2020/01/08 10:22:21;;;;;;;68.2;12.3;;;;;;;6.25;48.8125;950.5614;;;;
2020/01/08 10:24:46;;;;;;;57.4;11;;;;;;;6.46;47.25293;950.4906;;;;
2020/01/08 10:27:12;;;;;;;32.9;7.5;;;;;;;6.66;44.40137;950.4673;;;;
2020/01/08 10:29:37;;;;;;;33.7;6.9;;;;;;;6.95;46.25391;950.3842;;;;
2020/01/08 10:32:02;;;;;;;26.3;5.3;;;;;;;7.28;43.85254;950.274;;;;
2020/01/08 10:34:27;;;;;;;20.9;3.8;;;;;;;7.55;41.06934;950.2601;;;;
2020/01/08 10:36:52;;;;;;;19;3.3;;;;;;;7.73;39.05469;950.2371;;;;
2020/01/08 10:39:18;;;;;;;19;3.1;;;;;;;7.65;37.49512;950.2031;;;;
2020/01/08 10:41:43;;;;;;;7.9;1.9;;;;;;;7.46;33.44141;950.1406;;;;
2020/01/08 10:44:08;;;;;;;7.6;2.4;;;;;;;7.32;34.99512;950.0776;;;;
2020/01/08 10:46:33;;;;;;;18.7;3.3;;;;;;;7.65;35.99805;950.0842;;;;
2020/01/08 10:48:58;;;;;;;12.9;2.6;;;;;;;7.79;35.79297;949.9803;;;;
2020/01/08 10:51:24;;;;;;;23.7;2.8;;;;;;;7.92;36.04297;949.9676;;;;
2020/01/08 10:53:49;;;;;;;6.4;1.9;;;;;;;7.9;34.71289;949.9825;;;;
2020/01/08 10:56:14;;;;;;;16.8;2.4;;;;;;;7.87;35.65234;949.9147;;;;
2020/01/08 10:58:39;;;;;;;27.6;3.1;;;;;;;8.05;36.22363;949.9725;;;;
2020/01/08 11:01:05;;;;;;;21.9;3.2;;;;;;;8.22;35.76172;949.9023;;;;
2020/01/08 11:03:30;;;;;;;28.5;3.9;;;;;;;8.14;36.73145;949.8038;;;;
2020/01/08 11:05:55;;;;;;;12.8;2.8;;;;;;;8.01;36.06152;949.7205;;;;
2020/01/08 11:08:20;;;;;;;7.8;3;;;;;;;7.65;35.24805;949.7155;;;;
2020/01/08 11:10:45;;;;;;;20.2;7.4;;;;;;;7.6;37.62695;949.6858;;;;
2020/01/08 11:13:11;;;;;;;36.5;7.4;;;;;;;7.65;36.49707;949.6593;;;;
2020/01/08 11:15:36;;;;;;;34.3;6.4;;;;;;;7.66;36.54297;949.5861;;;;
2020/01/08 11:18:01;;;;;;;69.2;10.2;;;;;;;7.69;37.87109;949.5633;;;;
2020/01/08 11:20:26;;;;;;;15.7;4;;;;;;;7.78;37.40332;949.543;;;;
2020/01/08 11:22:58;;;;;;;13.3;3.2;;;;;;;7.72;38.64648;949.4561;;;;
2020/01/08 11:25:18;;;;;;;13;2.3;;;;;;;7.79;37.50781;949.481;;;;
2020/01/08 11:27:42;;;;;;;14;2.8;;;;;;;7.87;37.36719;949.4581;;;;
2020/01/08 11:30:07;;;;;;;11.9;3.2;;;;;;;7.78;37.13184;949.4758;;;;
2020/01/08 11:35:01;;;;;;;12.3;3.8;;;;;;;7.79;38.70898;949.2977;;;;
2020/01/08 11:37:23;;;;;;;14.7;3.8;;;;;;;7.78;39.67285;949.2672;;;;
2020/01/08 11:39:48;;;;;;;27.4;4.8;;;;;;;7.87;38.7168;949.2383;;;;
2020/01/08 11:42:13;;;;;;;17.7;3.1;;;;;;;8.28;38.35645;949.3285;;;;
2020/01/08 11:44:39;;;;;;;21.3;3.3;;;;;;;8.82;38.87109;949.2706;;;;
2020/01/08 11:47:04;;;;;;;21.9;3.6;;;;;;;9.5;36.9043;949.3483;;;;
2020/01/08 11:49:29;;;;;;;19.6;3;;;;;;;9.98;35.37109;949.29;;;;
2020/01/08 11:51:54;;;;;;;10.5;1.9;;;;;;;10.03;32.72949;949.3675;;;;
2020/01/08 11:54:19;;;;;;;4.3;1.5;;;;;;;10.06;32.5498;949.425;;;;
2020/01/08 11:56:45;;;;;;;4.2;1.4;;;;;;;9.85;32.69336;949.4382;;;;
2020/01/08 11:59:10;;;;;;;3.4;1.7;;;;;;;9.58;33.27734;949.5122;;;;
2020/01/08 12:01:35;;;;;;;5.9;2;;;;;;;9.44;33.14063;949.5435;;;;
2020/01/08 12:04:00;;;;;;;6.2;2;;;;;;;9.43;37.98047;949.5679;;;;
2020/01/08 12:06:25;;;;;;;27.8;4.5;;;;;;;9.26;34.94824;949.4955;;;;
2020/01/08 12:08:50;;;;;;;50.3;6.1;;;;;;;9.06;34.625;949.4202;;;;
2020/01/08 12:11:16;;;;;;;23.8;3.6;;;;;;;8.74;35.38379;949.4288;;;;
2020/01/08 12:13:41;;;;;;;17.1;2.5;;;;;;;8.67;36.10547;949.432;;;;
2020/01/08 12:16:06;;;;;;;31.5;5.4;;;;;;;8.66;37.57129;949.3956;;;;
2020/01/08 12:18:31;;;;;;;21.8;5.2;;;;;;;8.52;34.80859;949.3233;;;;
2020/01/08 12:20:56;;;;;;;25.1;6.3;;;;;;;8.6;36.29297;949.3822;;;;
2020/01/08 12:23:22;;;;;;;35.5;8.5;;;;;;;8.63;36.38672;949.3217;;;;
2020/01/08 12:25:47;;;;;;;27;6;;;;;;;8.73;37.90723;949.3171;;;;
2020/01/08 12:28:12;;;;;;;15.8;3.8;;;;;;;8.75;36.94238;949.3185;;;;
2020/01/08 12:30:37;;;;;;;17.7;3.6;;;;;;;8.48;36.83887;949.3114;;;;
2020/01/08 12:33:03;;;;;;;10.8;2.5;;;;;;;8.42;36.6416;949.3783;;;;
2020/01/08 12:35:28;;;;;;;17.8;2.7;;;;;;;8.23;35.59277;949.353;;;;
2020/01/08 12:37:53;;;;;;;12.5;2.5;;;;;;;8.04;35.88184;949.356;;;;
2020/01/08 12:40:18;;;;;;;12.9;2.7;;;;;;;7.91;36.63184;949.2034;;;;
2020/01/08 12:42:43;;;;;;;12.6;2.8;;;;;;;7.85;37.08008;949.2327;;;;
2020/01/08 12:45:09;;;;;;;16.3;3.3;;;;;;;7.96;38.73633;949.2042;;;;
2020/01/08 12:47:35;;;;;;;67.4;7.7;;;;;;;7.92;38.29004;949.1555;;;;
2020/01/08 12:49:59;;;;;;;13.2;3.3;;;;;;;7.87;39.11328;949.1429;;;;
2020/01/08 12:52:24;;;;;;;9.9;2.4;;;;;;;7.76;39.55664;949.168;;;;
2020/01/08 12:54:50;;;;;;;13.7;2.8;;;;;;;7.84;39.42773;949.1656;;;;
2020/01/08 12:57:15;;;;;;;4.4;2.2;;;;;;;7.82;39.75586;949.1724;;;;
2020/01/08 12:59:40;;;;;;;11.1;2.8;;;;;;;7.89;41.15918;949.1005;;;;
2020/01/08 13:02:06;;;;;;;16.4;2.9;;;;;;;7.75;40.18066;949.2256;;;;
2020/01/08 13:04:31;;;;;;;23.1;4.3;;;;;;;7.8;40.85547;949.1887;;;;
2020/01/08 13:06:56;;;;;;;5.6;2.2;;;;;;;7.83;39.4502;949.2097;;;;
2020/01/08 13:09:21;;;;;;;17.5;2.9;;;;;;;7.81;39.0625;949.2234;;;;
2020/01/08 13:11:46;;;;;;;8.5;2.3;;;;;;;7.78;37.93652;949.2299;;;;
2020/01/08 13:14:12;;;;;;;22.2;3.9;;;;;;;7.76;38.15039;949.2339;;;;
2020/01/08 13:16:37;;;;;;;4.4;1.9;;;;;;;7.73;36.33301;949.1392;;;;
2020/01/08 13:19:02;;;;;;;21.4;4.1;;;;;;;7.68;38.25684;949.0605;;;;
2020/01/08 13:21:47;;;;;;;31.8;5.7;;;;;;;7.66;39.02539;949.0731;;;;
2020/01/08 13:24:00;;;;;;;26.4;7.8;;;;;;;7.74;40.55371;949.0372;;;;
2020/01/08 13:26:18;;;;;;;23.4;10.2;;;;;;;7.69;41.93359;948.8794;;;;
2020/01/08 13:28:43;;;;;;;31.5;11.6;;;;;;;7.49;42.93359;948.9025;;;;
2020/01/08 13:31:08;;;;;;;32;13.5;;;;;;;7.4;43.61621;948.8201;;;;
2020/01/08 13:33:33;;;;;;;28.4;10.1;;;;;;;7.52;43.34473;948.7234;;;;
2020/01/08 13:35:58;;;;;;;28.6;6.9;;;;;;;7.38;42.68457;948.7689;;;;
2020/01/08 13:38:24;;;;;;;26;6.4;;;;;;;7.47;42.83008;948.7065;;;;
2020/01/08 13:40:49;;;;;;;25.8;8.3;;;;;;;7.54;43.06348;948.68;;;;
2020/01/08 13:43:14;;;;;;;31.2;8.2;;;;;;;7.63;43.74219;948.6815;;;;
2020/01/08 13:45:40;;;;;;;24.1;7.6;;;;;;;7.59;45.25781;948.6765;;;;
2020/01/08 13:48:05;;;;;;;13.7;5.3;;;;;;;7.59;44.71289;948.7152;;;;
2020/01/08 13:50:30;;;;;;;15.3;6.3;;;;;;;7.56;46.5127;948.7267;;;;
2020/01/08 13:52:55;;;;;;;19.9;6.5;;;;;;;7.52;45.60059;948.7228;;;;
2020/01/08 13:55:20;;;;;;;16.9;6.4;;;;;;;7.4;46.09863;948.5992;;;;
2020/01/08 13:57:46;;;;;;;17.2;7.7;;;;;;;7.23;45.93164;948.5109;;;;
2020/01/08 14:00:11;;;;;;;20.9;6.9;;;;;;;7.18;46.4707;948.5912;;;;
2020/01/08 14:02:36;;;;;;;15.4;6.5;;;;;;;7.16;45.9248;948.6127;;;;
2020/01/08 14:05:02;;;;;;;21.8;9.1;;;;;;;7.15;45.32422;948.5617;;;;
2020/01/08 14:07:27;;;;;;;44.5;10.4;;;;;;;7.19;46.33691;948.5419;;;;
2020/01/08 14:09:52;;;;;;;83.3;14;;;;;;;7.31;46.75879;948.5167;;;;
2020/01/08 14:12:17;;;;;;;58.2;11.9;;;;;;;7.31;45.58984;948.5996;;;;
2020/01/08 14:14:42;;;;;;;42.5;13.7;;;;;;;7.24;44.8584;948.567;;;;
2020/01/08 14:17:07;;;;;;;35.7;13.2;;;;;;;7.27;45.63086;948.5394;;;;
2020/01/08 14:19:33;;;;;;;20.4;5.9;;;;;;;7.17;43.45703;948.6003;;;;
2020/01/08 14:21:58;;;;;;;19.6;5.7;;;;;;;7.11;44.44727;948.5822;;;;
2020/01/08 14:24:23;;;;;;;62.8;14.9;;;;;;;7.3;45.69141;948.6225;;;;
2020/01/08 14:26:48;;;;;;;93.1;12.7;;;;;;;7.38;46.54883;948.6863;;;;
2020/01/08 14:29:13;;;;;;;23.2;7.8;;;;;;;7.51;46.00781;948.7414;;;;
2020/01/08 14:31:39;;;;;;;24.1;10;;;;;;;7.51;47.63965;948.7913;;;;
2020/01/08 14:34:04;;;;;;;32.3;11.6;;;;;;;7.39;47.78613;948.7478;;;;
2020/01/08 14:36:29;;;;;;;20.5;9.2;;;;;;;7.3;47.45898;948.7952;;;;
2020/01/08 14:38:55;;;;;;;21.3;7.1;;;;;;;7.34;44.91406;948.7473;;;;
2020/01/08 14:41:20;;;;;;;41.4;14.7;;;;;;;7.48;45.22168;948.841;;;;
2020/01/08 14:43:47;;;;;;;36.3;13.5;;;;;;;7.67;44.80078;948.9434;;;;
2020/01/08 14:48:39;;;;;;;41.9;12.6;;;;;;;7.84;47.11035;948.9645;;;;
2020/01/08 14:51:01;;;;;;;61.5;14.6;;;;;;;7.9;46.82129;948.9285;;;;
2020/01/08 14:53:26;;;;;;;99.2;17.7;;;;;;;7.93;47.1543;948.9645;;;;
2020/01/08 14:55:51;;;;;;;117.3;21.2;;;;;;;7.85;46.68066;948.9441;;;;
2020/01/08 14:58:16;;;;;;;46.6;16.7;;;;;;;7.73;48.2334;948.9086;;;;
2020/01/08 15:00:41;;;;;;;62.8;18.8;;;;;;;7.8;49.7373;948.9808;;;;
2020/01/08 15:03:06;;;;;;;75.7;18.7;;;;;;;7.86;48.13379;948.9722;;;;